sensor_id;sensor_type;location;lat;lon;timestamp;pressure;altitude;pressure_sealevel;temperature
31528;BMP280;10206;48.012;10.030;2022-09-20T00:01:11;95226.50;;;9.96
31528;BMP280;10206;48.012;10.030;2022-09-20T00:03:40;95230.75;;;9.67
31528;BMP280;10206;48.012;10.030;2022-09-20T00:06:09;95234.69;;;9.88
31528;BMP280;10206;48.012;10.030;2022-09-20T00:08:36;95226.88;;;9.92
31528;BMP280;10206;48.012;10.030;2022-09-20T00:11:09;95233.94;;;9.95
31528;BMP280;10206;48.012;10.030;2022-09-20T00:13:37;95234.13;;;9.97
31528;BMP280;10206;48.012;10.030;2022-09-20T00:16:06;95229.91;;;10.04
31528;BMP280;10206;48.012;10.030;2022-09-20T00:18:32;95234.66;;;9.96
31528;BMP280;10206;48.012;10.030;2022-09-20T00:20:58;95232.50;;;10.02
31528;BMP280;10206;48.012;10.030;2022-09-20T00:23:24;95231.00;;;10.08
31528;BMP280;10206;48.012;10.030;2022-09-20T00:26:03;95231.16;;;10.18
31528;BMP280;10206;48.012;10.030;2022-09-20T00:28:31;95226.78;;;10.22
31528;BMP280;10206;48.012;10.030;2022-09-20T00:30:57;95228.75;;;10.29
31528;BMP280;10206;48.012;10.030;2022-09-20T00:33:24;95224.38;;;10.34
31528;BMP280;10206;48.012;10.030;2022-09-20T00:36:13;95213.81;;;10.38
31528;BMP280;10206;48.012;10.030;2022-09-20T00:38:40;95219.28;;;10.30
31528;BMP280;10206;48.012;10.030;2022-09-20T00:41:07;95219.66;;;10.35
31528;BMP280;10206;48.012;10.030;2022-09-20T00:43:44;95220.41;;;10.27
31528;BMP280;10206;48.012;10.030;2022-09-20T00:46:33;95217.50;;;10.25
31528;BMP280;10206;48.012;10.030;2022-09-20T00:49:06;95210.53;;;10.40
31528;BMP280;10206;48.012;10.030;2022-09-20T00:51:38;95212.88;;;10.43
31528;BMP280;10206;48.012;10.030;2022-09-20T00:54:07;95215.81;;;10.38
31528;BMP280;10206;48.012;10.030;2022-09-20T00:56:37;95208.91;;;10.37
31528;BMP280;10206;48.012;10.030;2022-09-20T00:59:20;95215.66;;;10.36
31528;BMP280;10206;48.012;10.030;2022-09-20T01:01:52;95215.66;;;10.36
31528;BMP280;10206;48.012;10.030;2022-09-20T01:04:22;95202.94;;;10.23
31528;BMP280;10206;48.012;10.030;2022-09-20T01:06:51;95199.63;;;10.00
31528;BMP280;10206;48.012;10.030;2022-09-20T01:09:18;95201.81;;;9.86
31528;BMP280;10206;48.012;10.030;2022-09-20T01:11:45;95200.38;;;9.85
31528;BMP280;10206;48.012;10.030;2022-09-20T01:14:13;95191.66;;;9.87
31528;BMP280;10206;48.012;10.030;2022-09-20T01:16:40;95188.94;;;9.79
31528;BMP280;10206;48.012;10.030;2022-09-20T01:19:18;95199.69;;;9.77
31528;BMP280;10206;48.012;10.030;2022-09-20T01:21:46;95197.09;;;9.87
31528;BMP280;10206;48.012;10.030;2022-09-20T01:24:26;95197.50;;;9.76
31528;BMP280;10206;48.012;10.030;2022-09-20T01:27:15;95200.97;;;9.69
31528;BMP280;10206;48.012;10.030;2022-09-20T01:32:18;95209.88;;;9.62
31528;BMP280;10206;48.012;10.030;2022-09-20T01:34:47;95200.97;;;9.53
31528;BMP280;10206;48.012;10.030;2022-09-20T01:37:26;95202.81;;;9.51
31528;BMP280;10206;48.012;10.030;2022-09-20T01:40:25;95204.78;;;9.43
31528;BMP280;10206;48.012;10.030;2022-09-20T01:46:26;95207.53;;;9.35
31528;BMP280;10206;48.012;10.030;2022-09-20T01:57:48;95194.81;;;9.30
31528;BMP280;10206;48.012;10.030;2022-09-20T02:05:55;95196.28;;;9.24
31528;BMP280;10206;48.012;10.030;2022-09-20T02:21:37;95188.66;;;9.30
31528;BMP280;10206;48.012;10.030;2022-09-20T02:27:06;95195.53;;;9.16
31528;BMP280;10206;48.012;10.030;2022-09-20T02:30:03;95189.72;;;9.27
31528;BMP280;10206;48.012;10.030;2022-09-20T02:35:51;95189.56;;;9.25
31528;BMP280;10206;48.012;10.030;2022-09-20T02:38:51;95181.03;;;9.28
31528;BMP280;10206;48.012;10.030;2022-09-20T02:41:44;95190.47;;;9.35
31528;BMP280;10206;48.012;10.030;2022-09-20T02:44:20;95191.00;;;9.41
31528;BMP280;10206;48.012;10.030;2022-09-20T02:46:56;95196.25;;;9.54
31528;BMP280;10206;48.012;10.030;2022-09-20T02:52:43;95195.72;;;9.48
31528;BMP280;10206;48.012;10.030;2022-09-20T02:55:41;95200.63;;;9.49
31528;BMP280;10206;48.012;10.030;2022-09-20T02:58:43;95201.53;;;9.52
31528;BMP280;10206;48.012;10.030;2022-09-20T03:06:42;95199.72;;;9.47
31528;BMP280;10206;48.012;10.030;2022-09-20T03:09:25;95199.72;;;9.54
31528;BMP280;10206;48.012;10.030;2022-09-20T03:15:24;95204.59;;;9.56
31528;BMP280;10206;48.012;10.030;2022-09-20T03:18:06;95216.56;;;9.60
31528;BMP280;10206;48.012;10.030;2022-09-20T03:26:59;95209.69;;;9.52
31528;BMP280;10206;48.012;10.030;2022-09-20T03:30:19;95215.13;;;9.59
31528;BMP280;10206;48.012;10.030;2022-09-20T03:33:11;95212.41;;;9.44
31528;BMP280;10206;48.012;10.030;2022-09-20T03:41:03;95201.50;;;9.67
31528;BMP280;10206;48.012;10.030;2022-09-20T03:43:50;95211.16;;;9.68
31528;BMP280;10206;48.012;10.030;2022-09-20T03:57:22;95198.44;;;9.48
31528;BMP280;10206;48.012;10.030;2022-09-20T04:02:52;95208.25;;;9.51
31528;BMP280;10206;48.012;10.030;2022-09-20T04:08:24;95198.59;;;9.65
31528;BMP280;10206;48.012;10.030;2022-09-20T04:19:44;95195.72;;;9.18
31528;BMP280;10206;48.012;10.030;2022-09-20T04:22:12;95197.72;;;9.25
31528;BMP280;10206;48.012;10.030;2022-09-20T04:24:43;95201.91;;;9.18
31528;BMP280;10206;48.012;10.030;2022-09-20T04:27:32;95202.81;;;9.13
31528;BMP280;10206;48.012;10.030;2022-09-20T04:35:54;95204.78;;;8.98
31528;BMP280;10206;48.012;10.030;2022-09-20T04:38:44;95209.88;;;8.94
31528;BMP280;10206;48.012;10.030;2022-09-20T04:44:44;95206.03;;;8.81
31528;BMP280;10206;48.012;10.030;2022-09-20T04:50:27;95209.81;;;8.78
31528;BMP280;10206;48.012;10.030;2022-09-20T04:55:59;95214.19;;;8.74
31528;BMP280;10206;48.012;10.030;2022-09-20T05:09:55;95219.47;;;8.95
31528;BMP280;10206;48.012;10.030;2022-09-20T05:19:05;95216.25;;;9.19
31528;BMP280;10206;48.012;10.030;2022-09-20T05:21:42;95218.75;;;9.17
31528;BMP280;10206;48.012;10.030;2022-09-20T05:30:10;95220.94;;;9.56
31528;BMP280;10206;48.012;10.030;2022-09-20T05:32:48;95227.13;;;9.49
31528;BMP280;10206;48.012;10.030;2022-09-20T05:49:58;95232.19;;;9.60
31528;BMP280;10206;48.012;10.030;2022-09-20T05:58:46;95238.72;;;9.72
31528;BMP280;10206;48.012;10.030;2022-09-20T06:01:25;95243.78;;;9.83
31528;BMP280;10206;48.012;10.030;2022-09-20T06:15:43;95246.09;;;10.57
31528;BMP280;10206;48.012;10.030;2022-09-20T06:18:41;95258.56;;;10.75
31528;BMP280;10206;48.012;10.030;2022-09-20T06:23:35;95256.63;;;11.84
31528;BMP280;10206;48.012;10.030;2022-09-20T06:26:21;95249.88;;;12.02
31528;BMP280;10206;48.012;10.030;2022-09-20T06:28:57;95253.06;;;11.91
31528;BMP280;10206;48.012;10.030;2022-09-20T06:31:24;95263.03;;;12.47
31528;BMP280;10206;48.012;10.030;2022-09-20T06:34:06;95256.72;;;13.07
31528;BMP280;10206;48.012;10.030;2022-09-20T06:36:38;95260.34;;;13.56
31528;BMP280;10206;48.012;10.030;2022-09-20T06:42:17;95260.84;;;13.25
31528;BMP280;10206;48.012;10.030;2022-09-20T06:44:43;95253.06;;;13.32
31528;BMP280;10206;48.012;10.030;2022-09-20T06:47:13;95258.16;;;13.45
31528;BMP280;10206;48.012;10.030;2022-09-20T06:49:39;95257.03;;;13.57
31528;BMP280;10206;48.012;10.030;2022-09-20T06:52:09;95265.28;;;13.95
31528;BMP280;10206;48.012;10.030;2022-09-20T06:54:38;95251.00;;;13.87
31528;BMP280;10206;48.012;10.030;2022-09-20T06:57:10;95256.06;;;14.10
31528;BMP280;10206;48.012;10.030;2022-09-20T06:59:37;95263.84;;;14.14
31528;BMP280;10206;48.012;10.030;2022-09-20T07:02:03;95257.06;;;14.15
31528;BMP280;10206;48.012;10.030;2022-09-20T07:04:30;95258.72;;;14.58
31528;BMP280;10206;48.012;10.030;2022-09-20T07:07:01;95260.47;;;14.63
31528;BMP280;10206;48.012;10.030;2022-09-20T07:09:27;95267.38;;;14.73
31528;BMP280;10206;48.012;10.030;2022-09-20T07:11:54;95272.81;;;14.93
31528;BMP280;10206;48.012;10.030;2022-09-20T07:14:22;95277.31;;;14.88
31528;BMP280;10206;48.012;10.030;2022-09-20T07:16:48;95279.09;;;15.14
31528;BMP280;10206;48.012;10.030;2022-09-20T07:19:14;95276.72;;;15.51
31528;BMP280;10206;48.012;10.030;2022-09-20T07:21:41;95288.97;;;15.81
31528;BMP280;10206;48.012;10.030;2022-09-20T07:24:07;95282.63;;;15.78
31528;BMP280;10206;48.012;10.030;2022-09-20T07:26:33;95292.00;;;15.85
31528;BMP280;10206;48.012;10.030;2022-09-20T07:29:00;95284.38;;;15.52
31528;BMP280;10206;48.012;10.030;2022-09-20T07:31:28;95284.66;;;15.56
31528;BMP280;10206;48.012;10.030;2022-09-20T07:33:54;95287.94;;;15.34
31528;BMP280;10206;48.012;10.030;2022-09-20T07:36:21;95295.94;;;15.30
31528;BMP280;10206;48.012;10.030;2022-09-20T07:38:51;95294.44;;;15.38
31528;BMP280;10206;48.012;10.030;2022-09-20T07:41:18;95294.16;;;14.63
31528;BMP280;10206;48.012;10.030;2022-09-20T07:43:45;95296.94;;;14.94
31528;BMP280;10206;48.012;10.030;2022-09-20T07:46:11;95305.41;;;14.67
31528;BMP280;10206;48.012;10.030;2022-09-20T07:48:41;95304.56;;;14.27
31528;BMP280;10206;48.012;10.030;2022-09-20T07:51:10;95319.00;;;14.46
31528;BMP280;10206;48.012;10.030;2022-09-20T07:53:37;95307.44;;;14.00
31528;BMP280;10206;48.012;10.030;2022-09-20T07:58:30;95314.09;;;13.97
31528;BMP280;10206;48.012;10.030;2022-09-20T08:00:59;95324.63;;;14.39
31528;BMP280;10206;48.012;10.030;2022-09-20T08:03:26;95327.13;;;14.35
31528;BMP280;10206;48.012;10.030;2022-09-20T08:05:59;95326.94;;;14.52
31528;BMP280;10206;48.012;10.030;2022-09-20T08:08:26;95329.56;;;14.31
31528;BMP280;10206;48.012;10.030;2022-09-20T08:10:52;95333.03;;;14.41
31528;BMP280;10206;48.012;10.030;2022-09-20T08:13:20;95325.38;;;14.30
31528;BMP280;10206;48.012;10.030;2022-09-20T08:15:46;95334.88;;;14.76
31528;BMP280;10206;48.012;10.030;2022-09-20T08:18:13;95327.59;;;14.91
31528;BMP280;10206;48.012;10.030;2022-09-20T08:20:41;95335.59;;;14.87
31528;BMP280;10206;48.012;10.030;2022-09-20T08:23:07;95330.50;;;14.93
31528;BMP280;10206;48.012;10.030;2022-09-20T08:25:34;95335.53;;;13.72
31528;BMP280;10206;48.012;10.030;2022-09-20T08:28:01;95337.47;;;14.55
31528;BMP280;10206;48.012;10.030;2022-09-20T08:30:27;95339.97;;;14.42
31528;BMP280;10206;48.012;10.030;2022-09-20T08:32:54;95338.66;;;14.43
31528;BMP280;10206;48.012;10.030;2022-09-20T08:35:20;95343.16;;;14.48
31528;BMP280;10206;48.012;10.030;2022-09-20T08:37:47;95339.75;;;14.88
31528;BMP280;10206;48.012;10.030;2022-09-20T08:40:14;95338.22;;;14.65
31528;BMP280;10206;48.012;10.030;2022-09-20T08:42:42;95342.25;;;14.64
31528;BMP280;10206;48.012;10.030;2022-09-20T08:45:16;95338.47;;;14.79
31528;BMP280;10206;48.012;10.030;2022-09-20T08:50:14;95335.97;;;15.02
31528;BMP280;10206;48.012;10.030;2022-09-20T08:52:44;95343.50;;;15.02
31528;BMP280;10206;48.012;10.030;2022-09-20T08:55:21;95339.09;;;14.58
31528;BMP280;10206;48.012;10.030;2022-09-20T08:57:53;95342.84;;;15.13
31528;BMP280;10206;48.012;10.030;2022-09-20T09:00:22;95345.19;;;15.07
31528;BMP280;10206;48.012;10.030;2022-09-20T09:02:55;95345.91;;;15.17
31528;BMP280;10206;48.012;10.030;2022-09-20T09:05:35;95355.59;;;15.18
31528;BMP280;10206;48.012;10.030;2022-09-20T09:08:08;95356.19;;;15.07
31528;BMP280;10206;48.012;10.030;2022-09-20T09:10:37;95354.81;;;14.48
31528;BMP280;10206;48.012;10.030;2022-09-20T09:13:05;95350.47;;;14.93
31528;BMP280;10206;48.012;10.030;2022-09-20T09:15:35;95354.22;;;14.78
31528;BMP280;10206;48.012;10.030;2022-09-20T09:18:02;95355.25;;;14.93
31528;BMP280;10206;48.012;10.030;2022-09-20T09:20:28;95359.31;;;15.32
31528;BMP280;10206;48.012;10.030;2022-09-20T09:23:06;95363.06;;;14.87
31528;BMP280;10206;48.012;10.030;2022-09-20T09:25:38;95357.50;;;15.15
31528;BMP280;10206;48.012;10.030;2022-09-20T09:38:27;95360.03;;;15.32
31528;BMP280;10206;48.012;10.030;2022-09-20T09:43:29;95351.13;;;15.74
31528;BMP280;10206;48.012;10.030;2022-09-20T09:46:22;95349.28;;;15.77
31528;BMP280;10206;48.012;10.030;2022-09-20T09:49:22;95350.00;;;15.67
31528;BMP280;10206;48.012;10.030;2022-09-20T09:52:12;95348.84;;;16.13
31528;BMP280;10206;48.012;10.030;2022-09-20T09:54:41;95347.06;;;16.38
31528;BMP280;10206;48.012;10.030;2022-09-20T10:00:00;95339.06;;;16.75
31528;BMP280;10206;48.012;10.030;2022-09-20T10:11:27;95346.38;;;16.82
31528;BMP280;10206;48.012;10.030;2022-09-20T10:14:14;95336.22;;;17.19
31528;BMP280;10206;48.012;10.030;2022-09-20T10:17:00;95341.28;;;17.46
31528;BMP280;10206;48.012;10.030;2022-09-20T10:22:25;95339.88;;;16.66
31528;BMP280;10206;48.012;10.030;2022-09-20T10:25:19;95335.16;;;16.03
31528;BMP280;10206;48.012;10.030;2022-09-20T10:27:59;95338.28;;;16.96
31528;BMP280;10206;48.012;10.030;2022-09-20T10:33:33;95332.13;;;15.78
31528;BMP280;10206;48.012;10.030;2022-09-20T10:41:37;95332.06;;;16.63
31528;BMP280;10206;48.012;10.030;2022-09-20T10:44:42;95327.88;;;17.40
31528;BMP280;10206;48.012;10.030;2022-09-20T10:47:16;95331.28;;;17.76
31528;BMP280;10206;48.012;10.030;2022-09-20T10:49:54;95332.34;;;17.82
31528;BMP280;10206;48.012;10.030;2022-09-20T10:52:41;95325.38;;;17.81
31528;BMP280;10206;48.012;10.030;2022-09-20T11:01:02;95329.22;;;17.88
31528;BMP280;10206;48.012;10.030;2022-09-20T11:08:59;95323.97;;;17.69
31528;BMP280;10206;48.012;10.030;2022-09-20T11:11:43;95322.53;;;17.68
31528;BMP280;10206;48.012;10.030;2022-09-20T11:14:31;95325.69;;;17.04
31528;BMP280;10206;48.012;10.030;2022-09-20T11:17:14;95336.78;;;17.87
31528;BMP280;10206;48.012;10.030;2022-09-20T11:22:39;95324.25;;;17.15
31528;BMP280;10206;48.012;10.030;2022-09-20T11:27:50;95329.69;;;16.69
31528;BMP280;10206;48.012;10.030;2022-09-20T11:30:22;95337.22;;;16.68
31528;BMP280;10206;48.012;10.030;2022-09-20T11:33:05;95331.97;;;16.07
31528;BMP280;10206;48.012;10.030;2022-09-20T11:35:45;95336.72;;;17.16
31528;BMP280;10206;48.012;10.030;2022-09-20T11:39:09;95337.97;;;16.80
31528;BMP280;10206;48.012;10.030;2022-09-20T11:41:19;95342.09;;;17.14
31528;BMP280;10206;48.012;10.030;2022-09-20T11:43:47;95334.81;;;17.18
31528;BMP280;10206;48.012;10.030;2022-09-20T11:46:41;95334.81;;;17.30
31528;BMP280;10206;48.012;10.030;2022-09-20T11:49:16;95333.81;;;17.02
31528;BMP280;10206;48.012;10.030;2022-09-20T11:52:11;95336.50;;;17.12
31528;BMP280;10206;48.012;10.030;2022-09-20T11:57:25;95330.44;;;16.81
31528;BMP280;10206;48.012;10.030;2022-09-20T11:59:58;95340.78;;;17.38
31528;BMP280;10206;48.012;10.030;2022-09-20T12:05:04;95326.03;;;16.99
31528;BMP280;10206;48.012;10.030;2022-09-20T12:07:40;95322.78;;;16.91
31528;BMP280;10206;48.012;10.030;2022-09-20T12:10:25;95320.91;;;17.28
31528;BMP280;10206;48.012;10.030;2022-09-20T12:13:00;95318.75;;;17.15
31528;BMP280;10206;48.012;10.030;2022-09-20T12:15:36;95319.88;;;16.66
31528;BMP280;10206;48.012;10.030;2022-09-20T12:18:26;95319.81;;;17.44
31528;BMP280;10206;48.012;10.030;2022-09-20T12:21:08;95314.84;;;16.74
31528;BMP280;10206;48.012;10.030;2022-09-20T12:26:08;95324.19;;;16.80
31528;BMP280;10206;48.012;10.030;2022-09-20T12:28:37;95323.03;;;17.64
31528;BMP280;10206;48.012;10.030;2022-09-20T12:39:24;95324.34;;;18.36
31528;BMP280;10206;48.012;10.030;2022-09-20T12:42:00;95298.53;;;18.32
31528;BMP280;10206;48.012;10.030;2022-09-20T12:49:39;95299.66;;;17.90
31528;BMP280;10206;48.012;10.030;2022-09-20T12:52:37;95287.75;;;17.63
31528;BMP280;10206;48.012;10.030;2022-09-20T13:03:28;95295.59;;;17.91
31528;BMP280;10206;48.012;10.030;2022-09-20T13:13:57;95288.75;;;16.98
31528;BMP280;10206;48.012;10.030;2022-09-20T13:16:30;95286.22;;;16.79
31528;BMP280;10206;48.012;10.030;2022-09-20T13:19:19;95285.75;;;16.94
31528;BMP280;10206;48.012;10.030;2022-09-20T13:24:20;95289.44;;;17.56
31528;BMP280;10206;48.012;10.030;2022-09-20T13:26:49;95287.31;;;17.20
31528;BMP280;10206;48.012;10.030;2022-09-20T13:29:34;95288.25;;;16.90
31528;BMP280;10206;48.012;10.030;2022-09-20T13:32:24;95291.59;;;18.06
31528;BMP280;10206;48.012;10.030;2022-09-20T13:35:20;95284.13;;;17.12
31528;BMP280;10206;48.012;10.030;2022-09-20T13:37:56;95283.97;;;16.42
31528;BMP280;10206;48.012;10.030;2022-09-20T13:40:33;95288.91;;;16.44
31528;BMP280;10206;48.012;10.030;2022-09-20T13:43:01;95289.47;;;16.87
31528;BMP280;10206;48.012;10.030;2022-09-20T13:45:28;95292.72;;;16.95
31528;BMP280;10206;48.012;10.030;2022-09-20T13:47:57;95286.50;;;16.06
31528;BMP280;10206;48.012;10.030;2022-09-20T13:50:28;95297.53;;;16.17
31528;BMP280;10206;48.012;10.030;2022-09-20T13:52:58;95293.41;;;16.28
31528;BMP280;10206;48.012;10.030;2022-09-20T13:57:55;95304.03;;;16.01
31528;BMP280;10206;48.012;10.030;2022-09-20T14:00:23;95300.56;;;16.00
31528;BMP280;10206;48.012;10.030;2022-09-20T14:02:53;95300.59;;;16.66
31528;BMP280;10206;48.012;10.030;2022-09-20T14:05:25;95289.34;;;16.85
31528;BMP280;10206;48.012;10.030;2022-09-20T14:07:54;95290.06;;;17.43
31528;BMP280;10206;48.012;10.030;2022-09-20T14:13:00;95287.53;;;16.66
31528;BMP280;10206;48.012;10.030;2022-09-20T14:15:36;95296.03;;;16.82
31528;BMP280;10206;48.012;10.030;2022-09-20T14:18:04;95291.13;;;16.69
31528;BMP280;10206;48.012;10.030;2022-09-20T14:20:32;95280.56;;;16.53
31528;BMP280;10206;48.012;10.030;2022-09-20T14:22:59;95298.78;;;16.82
31528;BMP280;10206;48.012;10.030;2022-09-20T14:25:27;95304.13;;;16.56
31528;BMP280;10206;48.012;10.030;2022-09-20T14:28:15;95292.53;;;16.58
31528;BMP280;10206;48.012;10.030;2022-09-20T14:30:43;95292.13;;;16.08
31528;BMP280;10206;48.012;10.030;2022-09-20T14:33:15;95297.69;;;16.64
31528;BMP280;10206;48.012;10.030;2022-09-20T14:35:47;95291.19;;;16.47
31528;BMP280;10206;48.012;10.030;2022-09-20T14:38:14;95288.59;;;16.73
31528;BMP280;10206;48.012;10.030;2022-09-20T14:40:46;95286.72;;;16.87
31528;BMP280;10206;48.012;10.030;2022-09-20T14:43:28;95287.38;;;16.64
31528;BMP280;10206;48.012;10.030;2022-09-20T14:45:57;95289.84;;;16.93
31528;BMP280;10206;48.012;10.030;2022-09-20T14:53:36;95289.56;;;16.77
31528;BMP280;10206;48.012;10.030;2022-09-20T14:56:07;95292.41;;;16.56
31528;BMP280;10206;48.012;10.030;2022-09-20T15:01:26;95288.81;;;16.00
31528;BMP280;10206;48.012;10.030;2022-09-20T15:03:52;95289.13;;;16.48
31528;BMP280;10206;48.012;10.030;2022-09-20T15:06:18;95282.38;;;16.72
31528;BMP280;10206;48.012;10.030;2022-09-20T15:08:45;95284.09;;;16.89
31528;BMP280;10206;48.012;10.030;2022-09-20T15:11:14;95292.59;;;17.04
31528;BMP280;10206;48.012;10.030;2022-09-20T15:13:41;95293.28;;;16.93
31528;BMP280;10206;48.012;10.030;2022-09-20T15:16:07;95288.34;;;16.69
31528;BMP280;10206;48.012;10.030;2022-09-20T15:18:42;95293.78;;;16.90
31528;BMP280;10206;48.012;10.030;2022-09-20T15:21:09;95289.22;;;16.83
31528;BMP280;10206;48.012;10.030;2022-09-20T15:23:38;95293.31;;;17.05
31528;BMP280;10206;48.012;10.030;2022-09-20T15:26:05;95293.31;;;17.16
31528;BMP280;10206;48.012;10.030;2022-09-20T15:28:33;95296.91;;;17.19
31528;BMP280;10206;48.012;10.030;2022-09-20T15:30:59;95297.28;;;17.13
31528;BMP280;10206;48.012;10.030;2022-09-20T15:33:29;95290.56;;;17.16
31528;BMP280;10206;48.012;10.030;2022-09-20T15:35:56;95297.91;;;17.12
31528;BMP280;10206;48.012;10.030;2022-09-20T15:38:22;95299.53;;;17.17
31528;BMP280;10206;48.012;10.030;2022-09-20T15:40:52;95290.91;;;16.88
31528;BMP280;10206;48.012;10.030;2022-09-20T15:43:20;95288.78;;;16.86
31528;BMP280;10206;48.012;10.030;2022-09-20T15:45:50;95292.13;;;16.96
31528;BMP280;10206;48.012;10.030;2022-09-20T15:48:18;95295.44;;;16.60
31528;BMP280;10206;48.012;10.030;2022-09-20T15:51:06;95289.59;;;16.89
31528;BMP280;10206;48.012;10.030;2022-09-20T15:53:34;95288.72;;;16.63
31528;BMP280;10206;48.012;10.030;2022-09-20T15:56:02;95287.16;;;16.72
31528;BMP280;10206;48.012;10.030;2022-09-20T15:58:31;95290.66;;;16.61
31528;BMP280;10206;48.012;10.030;2022-09-20T16:01:06;95289.53;;;16.54
31528;BMP280;10206;48.012;10.030;2022-09-20T16:03:33;95293.81;;;16.45
31528;BMP280;10206;48.012;10.030;2022-09-20T16:06:01;95296.63;;;16.24
31528;BMP280;10206;48.012;10.030;2022-09-20T16:08:32;95287.34;;;16.08
31528;BMP280;10206;48.012;10.030;2022-09-20T16:10:58;95289.38;;;16.08
31528;BMP280;10206;48.012;10.030;2022-09-20T16:13:25;95296.84;;;15.96
31528;BMP280;10206;48.012;10.030;2022-09-20T16:15:59;95299.13;;;15.78
31528;BMP280;10206;48.012;10.030;2022-09-20T16:18:26;95290.44;;;15.60
31528;BMP280;10206;48.012;10.030;2022-09-20T16:21:12;95290.34;;;15.49
31528;BMP280;10206;48.012;10.030;2022-09-20T16:23:40;95291.50;;;15.46
31528;BMP280;10206;48.012;10.030;2022-09-20T16:26:09;95299.19;;;15.47
31528;BMP280;10206;48.012;10.030;2022-09-20T16:28:39;95294.22;;;15.25
31528;BMP280;10206;48.012;10.030;2022-09-20T16:31:06;95293.16;;;15.09
31528;BMP280;10206;48.012;10.030;2022-09-20T16:33:32;95303.88;;;15.05
31528;BMP280;10206;48.012;10.030;2022-09-20T16:35:58;95298.78;;;15.01
31528;BMP280;10206;48.012;10.030;2022-09-20T16:38:25;95300.31;;;14.83
31528;BMP280;10206;48.012;10.030;2022-09-20T16:40:52;95298.91;;;14.63
31528;BMP280;10206;48.012;10.030;2022-09-20T16:43:19;95297.34;;;14.50
31528;BMP280;10206;48.012;10.030;2022-09-20T16:45:58;95307.28;;;14.36
31528;BMP280;10206;48.012;10.030;2022-09-20T16:48:25;95311.22;;;14.14
31528;BMP280;10206;48.012;10.030;2022-09-20T16:50:56;95312.50;;;14.03
31528;BMP280;10206;48.012;10.030;2022-09-20T16:53:26;95306.59;;;13.88
31528;BMP280;10206;48.012;10.030;2022-09-20T16:55:53;95308.88;;;13.82
31528;BMP280;10206;48.012;10.030;2022-09-20T16:58:27;95312.03;;;13.78
31528;BMP280;10206;48.012;10.030;2022-09-20T17:01:05;95317.38;;;13.67
31528;BMP280;10206;48.012;10.030;2022-09-20T17:03:32;95310.81;;;13.53
31528;BMP280;10206;48.012;10.030;2022-09-20T17:06:03;95323.16;;;13.35
31528;BMP280;10206;48.012;10.030;2022-09-20T17:08:30;95322.34;;;13.15
31528;BMP280;10206;48.012;10.030;2022-09-20T17:11:00;95324.81;;;13.20
31528;BMP280;10206;48.012;10.030;2022-09-20T17:13:30;95324.91;;;13.13
31528;BMP280;10206;48.012;10.030;2022-09-20T17:16:02;95327.69;;;12.86
31528;BMP280;10206;48.012;10.030;2022-09-20T17:18:29;95328.50;;;12.79
31528;BMP280;10206;48.012;10.030;2022-09-20T17:20:56;95337.84;;;12.76
31528;BMP280;10206;48.012;10.030;2022-09-20T17:23:27;95336.38;;;12.75
31528;BMP280;10206;48.012;10.030;2022-09-20T17:26:02;95334.72;;;12.63
31528;BMP280;10206;48.012;10.030;2022-09-20T17:28:37;95345.84;;;12.47
31528;BMP280;10206;48.012;10.030;2022-09-20T17:31:04;95336.13;;;12.37
31528;BMP280;10206;48.012;10.030;2022-09-20T17:33:32;95342.38;;;12.30
31528;BMP280;10206;48.012;10.030;2022-09-20T17:35:59;95348.84;;;12.25
31528;BMP280;10206;48.012;10.030;2022-09-20T17:38:27;95346.59;;;12.31
31528;BMP280;10206;48.012;10.030;2022-09-20T17:41:07;95356.22;;;12.15
31528;BMP280;10206;48.012;10.030;2022-09-20T17:43:36;95354.66;;;12.04
31528;BMP280;10206;48.012;10.030;2022-09-20T17:46:15;95352.91;;;11.99
31528;BMP280;10206;48.012;10.030;2022-09-20T17:48:43;95356.19;;;11.98
31528;BMP280;10206;48.012;10.030;2022-09-20T17:51:15;95353.59;;;11.83
31528;BMP280;10206;48.012;10.030;2022-09-20T17:53:42;95356.56;;;11.77
31528;BMP280;10206;48.012;10.030;2022-09-20T17:56:10;95367.16;;;11.73
31528;BMP280;10206;48.012;10.030;2022-09-20T17:58:38;95366.25;;;11.70
31528;BMP280;10206;48.012;10.030;2022-09-20T18:01:15;95366.44;;;11.72
31528;BMP280;10206;48.012;10.030;2022-09-20T18:03:43;95377.00;;;11.68
31528;BMP280;10206;48.012;10.030;2022-09-20T18:06:19;95374.00;;;11.82
31528;BMP280;10206;48.012;10.030;2022-09-20T18:08:50;95377.81;;;11.86
31528;BMP280;10206;48.012;10.030;2022-09-20T18:11:19;95377.44;;;11.90
31528;BMP280;10206;48.012;10.030;2022-09-20T18:13:46;95388.69;;;11.94
31528;BMP280;10206;48.012;10.030;2022-09-20T18:16:14;95391.63;;;11.88
31528;BMP280;10206;48.012;10.030;2022-09-20T18:18:42;95394.53;;;11.90
31528;BMP280;10206;48.012;10.030;2022-09-20T18:21:12;95394.75;;;11.85
31528;BMP280;10206;48.012;10.030;2022-09-20T18:23:39;95392.75;;;11.85
31528;BMP280;10206;48.012;10.030;2022-09-20T18:26:07;95394.97;;;11.79
31528;BMP280;10206;48.012;10.030;2022-09-20T18:29:09;95397.84;;;11.64
31528;BMP280;10206;48.012;10.030;2022-09-20T18:31:47;95403.34;;;11.56
31528;BMP280;10206;48.012;10.030;2022-09-20T18:34:22;95409.19;;;11.53
31528;BMP280;10206;48.012;10.030;2022-09-20T18:36:54;95414.16;;;11.39
31528;BMP280;10206;48.012;10.030;2022-09-20T18:39:21;95415.28;;;11.36
31528;BMP280;10206;48.012;10.030;2022-09-20T18:41:48;95415.38;;;11.21
31528;BMP280;10206;48.012;10.030;2022-09-20T18:44:15;95407.72;;;11.20
31528;BMP280;10206;48.012;10.030;2022-09-20T18:46:44;95422.53;;;11.09
31528;BMP280;10206;48.012;10.030;2022-09-20T18:49:11;95425.84;;;11.00
31528;BMP280;10206;48.012;10.030;2022-09-20T18:51:40;95422.56;;;10.94
31528;BMP280;10206;48.012;10.030;2022-09-20T18:54:06;95430.09;;;10.71
31528;BMP280;10206;48.012;10.030;2022-09-20T18:56:38;95421.75;;;10.54
31528;BMP280;10206;48.012;10.030;2022-09-20T18:59:19;95426.47;;;10.68
31528;BMP280;10206;48.012;10.030;2022-09-20T19:07:41;95426.13;;;10.57
31528;BMP280;10206;48.012;10.030;2022-09-20T19:26:31;95464.22;;;11.10
31528;BMP280;10206;48.012;10.030;2022-09-20T19:28:59;95456.59;;;11.00
31528;BMP280;10206;48.012;10.030;2022-09-20T19:31:26;95467.28;;;11.14